sensor_id;sensor_type;location;lat;lon;timestamp;P1;durP1;ratioP1;P2;durP2;ratioP2
32292;SDS011;43233;48.608;8.838;2023-02-24T00:01:31;15.33;;;10.40;;
32292;SDS011;43233;48.608;8.838;2023-02-24T00:04:02;16.70;;;10.67;;
32292;SDS011;43233;48.608;8.838;2023-02-24T00:06:32;13.73;;;9.97;;
32292;SDS011;43233;48.608;8.838;2023-02-24T00:09:17;16.73;;;10.60;;
32292;SDS011;43233;48.608;8.838;2023-02-24T00:11:55;15.73;;;9.97;;
32292;SDS011;43233;48.608;8.838;2023-02-24T00:14:27;19.33;;;9.10;;
32292;SDS011;43233;48.608;8.838;2023-02-24T00:16:55;15.10;;;9.90;;
32292;SDS011;43233;48.608;8.838;2023-02-24T00:19:22;12.30;;;9.43;;
32292;SDS011;43233;48.608;8.838;2023-02-24T00:21:50;13.60;;;9.33;;
32292;SDS011;43233;48.608;8.838;2023-02-24T00:24:18;16.90;;;9.50;;
32292;SDS011;43233;48.608;8.838;2023-02-24T00:26:44;11.83;;;9.70;;
32292;SDS011;43233;48.608;8.838;2023-02-24T00:29:12;10.87;;;8.60;;
32292;SDS011;43233;48.608;8.838;2023-02-24T00:31:38;15.93;;;10.10;;
32292;SDS011;43233;48.608;8.838;2023-02-24T00:34:06;14.50;;;8.77;;
32292;SDS011;43233;48.608;8.838;2023-02-24T00:36:32;13.97;;;10.53;;
32292;SDS011;43233;48.608;8.838;2023-02-24T00:38:59;16.77;;;11.70;;
32292;SDS011;43233;48.608;8.838;2023-02-24T00:41:28;21.23;;;10.70;;
32292;SDS011;43233;48.608;8.838;2023-02-24T00:43:59;17.83;;;11.40;;
32292;SDS011;43233;48.608;8.838;2023-02-24T00:46:30;16.33;;;10.00;;
32292;SDS011;43233;48.608;8.838;2023-02-24T00:49:18;18.07;;;11.47;;
32292;SDS011;43233;48.608;8.838;2023-02-24T00:51:46;25.70;;;12.30;;
32292;SDS011;43233;48.608;8.838;2023-02-24T00:54:13;15.90;;;11.03;;
32292;SDS011;43233;48.608;8.838;2023-02-24T00:56:43;18.73;;;11.43;;
32292;SDS011;43233;48.608;8.838;2023-02-24T00:59:11;19.60;;;11.40;;
32292;SDS011;43233;48.608;8.838;2023-02-24T01:01:38;18.17;;;11.23;;
32292;SDS011;43233;48.608;8.838;2023-02-24T01:04:05;16.23;;;11.13;;
32292;SDS011;43233;48.608;8.838;2023-02-24T01:06:36;15.60;;;10.93;;
32292;SDS011;43233;48.608;8.838;2023-02-24T01:09:03;18.07;;;12.30;;
32292;SDS011;43233;48.608;8.838;2023-02-24T01:11:33;21.27;;;12.37;;
32292;SDS011;43233;48.608;8.838;2023-02-24T01:14:22;23.33;;;15.13;;
32292;SDS011;43233;48.608;8.838;2023-02-24T01:16:51;25.17;;;14.90;;
32292;SDS011;43233;48.608;8.838;2023-02-24T01:19:18;33.43;;;16.03;;
32292;SDS011;43233;48.608;8.838;2023-02-24T01:21:46;20.70;;;13.80;;
32292;SDS011;43233;48.608;8.838;2023-02-24T01:24:15;23.77;;;13.27;;
32292;SDS011;43233;48.608;8.838;2023-02-24T01:26:41;28.40;;;13.20;;
32292;SDS011;43233;48.608;8.838;2023-02-24T01:29:07;19.97;;;11.40;;
32292;SDS011;43233;48.608;8.838;2023-02-24T01:31:33;26.93;;;15.27;;
32292;SDS011;43233;48.608;8.838;2023-02-24T01:34:04;19.80;;;12.93;;
32292;SDS011;43233;48.608;8.838;2023-02-24T01:36:30;20.43;;;12.07;;
32292;SDS011;43233;48.608;8.838;2023-02-24T01:38:58;26.47;;;13.73;;
32292;SDS011;43233;48.608;8.838;2023-02-24T01:41:25;25.50;;;13.20;;
32292;SDS011;43233;48.608;8.838;2023-02-24T01:44:01;25.10;;;12.10;;
32292;SDS011;43233;48.608;8.838;2023-02-24T01:46:37;27.23;;;13.17;;
32292;SDS011;43233;48.608;8.838;2023-02-24T01:49:17;26.83;;;15.40;;
32292;SDS011;43233;48.608;8.838;2023-02-24T01:54:15;28.57;;;15.90;;
32292;SDS011;43233;48.608;8.838;2023-02-24T01:56:43;25.10;;;14.30;;
32292;SDS011;43233;48.608;8.838;2023-02-24T01:59:15;20.13;;;13.60;;
32292;SDS011;43233;48.608;8.838;2023-02-24T02:01:42;25.60;;;14.43;;
32292;SDS011;43233;48.608;8.838;2023-02-24T02:06:47;21.00;;;12.80;;
32292;SDS011;43233;48.608;8.838;2023-02-24T02:09:13;22.80;;;14.40;;
32292;SDS011;43233;48.608;8.838;2023-02-24T02:11:43;23.20;;;14.20;;
32292;SDS011;43233;48.608;8.838;2023-02-24T02:14:16;25.47;;;14.87;;
32292;SDS011;43233;48.608;8.838;2023-02-24T02:16:47;32.53;;;16.10;;
32292;SDS011;43233;48.608;8.838;2023-02-24T02:27:24;25.73;;;16.93;;
32292;SDS011;43233;48.608;8.838;2023-02-24T02:36:04;23.60;;;16.33;;
32292;SDS011;43233;48.608;8.838;2023-02-24T02:41:17;27.67;;;17.47;;
32292;SDS011;43233;48.608;8.838;2023-02-24T02:44:14;25.80;;;16.17;;
32292;SDS011;43233;48.608;8.838;2023-02-24T02:46:48;28.43;;;16.83;;
32292;SDS011;43233;48.608;8.838;2023-02-24T02:49:35;29.80;;;17.83;;
32292;SDS011;43233;48.608;8.838;2023-02-24T02:52:15;28.63;;;15.90;;
32292;SDS011;43233;48.608;8.838;2023-02-24T02:54:47;19.90;;;12.73;;
32292;SDS011;43233;48.608;8.838;2023-02-24T02:57:22;23.50;;;14.00;;
32292;SDS011;43233;48.608;8.838;2023-02-24T02:59:52;22.20;;;13.77;;
32292;SDS011;43233;48.608;8.838;2023-02-24T03:02:42;25.00;;;13.50;;
32292;SDS011;43233;48.608;8.838;2023-02-24T03:05:12;18.93;;;11.47;;
32292;SDS011;43233;48.608;8.838;2023-02-24T03:07:42;18.97;;;12.60;;
32292;SDS011;43233;48.608;8.838;2023-02-24T03:10:19;25.10;;;12.23;;
32292;SDS011;43233;48.608;8.838;2023-02-24T03:12:52;22.67;;;13.37;;
32292;SDS011;43233;48.608;8.838;2023-02-24T03:15:21;24.13;;;14.60;;
32292;SDS011;43233;48.608;8.838;2023-02-24T03:17:54;25.00;;;15.00;;
32292;SDS011;43233;48.608;8.838;2023-02-24T03:20:36;26.73;;;15.03;;
32292;SDS011;43233;48.608;8.838;2023-02-24T03:23:10;23.57;;;14.10;;
32292;SDS011;43233;48.608;8.838;2023-02-24T03:28:42;19.63;;;13.90;;
32292;SDS011;43233;48.608;8.838;2023-02-24T03:31:19;20.03;;;12.90;;
32292;SDS011;43233;48.608;8.838;2023-02-24T03:33:54;21.17;;;15.03;;
32292;SDS011;43233;48.608;8.838;2023-02-24T03:36:27;27.57;;;15.10;;
32292;SDS011;43233;48.608;8.838;2023-02-24T03:38:53;28.50;;;15.47;;
32292;SDS011;43233;48.608;8.838;2023-02-24T03:41:22;31.27;;;15.87;;
32292;SDS011;43233;48.608;8.838;2023-02-24T03:43:54;26.13;;;17.07;;
32292;SDS011;43233;48.608;8.838;2023-02-24T03:46:21;26.77;;;15.23;;
32292;SDS011;43233;48.608;8.838;2023-02-24T03:48:51;25.40;;;15.37;;
32292;SDS011;43233;48.608;8.838;2023-02-24T03:51:23;25.87;;;15.10;;
32292;SDS011;43233;48.608;8.838;2023-02-24T03:56:27;25.53;;;15.73;;
32292;SDS011;43233;48.608;8.838;2023-02-24T04:02:03;30.87;;;18.83;;
32292;SDS011;43233;48.608;8.838;2023-02-24T04:04:51;33.40;;;20.20;;
32292;SDS011;43233;48.608;8.838;2023-02-24T04:10:08;22.37;;;14.63;;
32292;SDS011;43233;48.608;8.838;2023-02-24T04:18:00;21.33;;;12.70;;
32292;SDS011;43233;48.608;8.838;2023-02-24T04:20:31;18.77;;;11.77;;
32292;SDS011;43233;48.608;8.838;2023-02-24T04:23:34;17.70;;;12.20;;
32292;SDS011;43233;48.608;8.838;2023-02-24T04:25:55;14.10;;;10.40;;
32292;SDS011;43233;48.608;8.838;2023-02-24T04:28:21;18.00;;;11.60;;
32292;SDS011;43233;48.608;8.838;2023-02-24T04:30:49;20.90;;;13.57;;
32292;SDS011;43233;48.608;8.838;2023-02-24T04:33:18;19.90;;;11.80;;
32292;SDS011;43233;48.608;8.838;2023-02-24T04:35:44;17.87;;;12.20;;
32292;SDS011;43233;48.608;8.838;2023-02-24T04:38:12;37.87;;;15.17;;
32292;SDS011;43233;48.608;8.838;2023-02-24T04:40:38;22.40;;;11.20;;
32292;SDS011;43233;48.608;8.838;2023-02-24T04:43:07;18.23;;;12.00;;
32292;SDS011;43233;48.608;8.838;2023-02-24T04:45:32;19.73;;;11.63;;
32292;SDS011;43233;48.608;8.838;2023-02-24T04:47:59;23.33;;;12.17;;
32292;SDS011;43233;48.608;8.838;2023-02-24T04:50:27;19.77;;;11.00;;
32292;SDS011;43233;48.608;8.838;2023-02-24T04:53:01;24.20;;;11.60;;
32292;SDS011;43233;48.608;8.838;2023-02-24T04:55:32;21.73;;;12.70;;
32292;SDS011;43233;48.608;8.838;2023-02-24T04:58:20;16.93;;;11.07;;
32292;SDS011;43233;48.608;8.838;2023-02-24T05:00:48;16.87;;;10.97;;
32292;SDS011;43233;48.608;8.838;2023-02-24T05:03:17;19.70;;;11.07;;
32292;SDS011;43233;48.608;8.838;2023-02-24T05:05:52;15.00;;;9.87;;
32292;SDS011;43233;48.608;8.838;2023-02-24T05:08:24;19.00;;;11.87;;
32292;SDS011;43233;48.608;8.838;2023-02-24T05:10:51;19.00;;;10.10;;
32292;SDS011;43233;48.608;8.838;2023-02-24T05:13:19;21.33;;;12.17;;
32292;SDS011;43233;48.608;8.838;2023-02-24T05:15:51;21.80;;;11.30;;
32292;SDS011;43233;48.608;8.838;2023-02-24T05:18:17;23.70;;;11.30;;
32292;SDS011;43233;48.608;8.838;2023-02-24T05:20:48;27.93;;;14.30;;
32292;SDS011;43233;48.608;8.838;2023-02-24T05:23:39;20.93;;;11.90;;
32292;SDS011;43233;48.608;8.838;2023-02-24T05:26:09;23.47;;;13.20;;
32292;SDS011;43233;48.608;8.838;2023-02-24T05:28:49;28.80;;;15.43;;
32292;SDS011;43233;48.608;8.838;2023-02-24T05:31:18;25.70;;;13.90;;
32292;SDS011;43233;48.608;8.838;2023-02-24T05:33:51;26.43;;;14.13;;
32292;SDS011;43233;48.608;8.838;2023-02-24T05:36:21;38.10;;;15.53;;
32292;SDS011;43233;48.608;8.838;2023-02-24T05:38:49;32.43;;;19.47;;
32292;SDS011;43233;48.608;8.838;2023-02-24T05:41:38;57.13;;;17.07;;
32292;SDS011;43233;48.608;8.838;2023-02-24T05:44:16;25.97;;;15.40;;
32292;SDS011;43233;48.608;8.838;2023-02-24T05:46:46;31.80;;;14.03;;
32292;SDS011;43233;48.608;8.838;2023-02-24T05:49:17;26.47;;;13.50;;
32292;SDS011;43233;48.608;8.838;2023-02-24T05:51:47;22.30;;;13.10;;
32292;SDS011;43233;48.608;8.838;2023-02-24T05:54:30;26.77;;;12.97;;
32292;SDS011;43233;48.608;8.838;2023-02-24T05:57:03;24.80;;;13.47;;
32292;SDS011;43233;48.608;8.838;2023-02-24T05:59:32;21.07;;;11.77;;
32292;SDS011;43233;48.608;8.838;2023-02-24T06:02:00;28.37;;;14.20;;
32292;SDS011;43233;48.608;8.838;2023-02-24T06:04:31;23.83;;;12.67;;
32292;SDS011;43233;48.608;8.838;2023-02-24T06:07:09;30.90;;;15.40;;
32292;SDS011;43233;48.608;8.838;2023-02-24T06:09:43;31.23;;;14.60;;
32292;SDS011;43233;48.608;8.838;2023-02-24T06:12:17;30.80;;;14.83;;
32292;SDS011;43233;48.608;8.838;2023-02-24T06:14:44;23.83;;;13.20;;
32292;SDS011;43233;48.608;8.838;2023-02-24T06:17:11;31.60;;;13.67;;
32292;SDS011;43233;48.608;8.838;2023-02-24T06:19:39;32.57;;;15.70;;
32292;SDS011;43233;48.608;8.838;2023-02-24T06:22:05;25.57;;;15.57;;
32292;SDS011;43233;48.608;8.838;2023-02-24T06:24:35;51.07;;;15.33;;
32292;SDS011;43233;48.608;8.838;2023-02-24T06:27:03;28.13;;;13.40;;
32292;SDS011;43233;48.608;8.838;2023-02-24T06:29:34;22.97;;;12.43;;
32292;SDS011;43233;48.608;8.838;2023-02-24T06:32:01;49.37;;;17.87;;
32292;SDS011;43233;48.608;8.838;2023-02-24T06:34:38;26.90;;;13.40;;
32292;SDS011;43233;48.608;8.838;2023-02-24T06:37:05;39.30;;;16.33;;
32292;SDS011;43233;48.608;8.838;2023-02-24T06:39:32;32.10;;;15.23;;
32292;SDS011;43233;48.608;8.838;2023-02-24T06:42:01;39.33;;;15.17;;
32292;SDS011;43233;48.608;8.838;2023-02-24T06:44:32;30.20;;;13.70;;
32292;SDS011;43233;48.608;8.838;2023-02-24T06:47:00;26.57;;;13.40;;
32292;SDS011;43233;48.608;8.838;2023-02-24T06:49:27;24.67;;;13.00;;
32292;SDS011;43233;48.608;8.838;2023-02-24T06:51:53;32.03;;;14.50;;
32292;SDS011;43233;48.608;8.838;2023-02-24T06:54:19;30.20;;;13.53;;
32292;SDS011;43233;48.608;8.838;2023-02-24T06:56:59;21.50;;;12.60;;
32292;SDS011;43233;48.608;8.838;2023-02-24T06:59:27;22.07;;;11.50;;
32292;SDS011;43233;48.608;8.838;2023-02-24T07:01:57;22.40;;;12.20;;
32292;SDS011;43233;48.608;8.838;2023-02-24T07:04:23;52.90;;;13.70;;
32292;SDS011;43233;48.608;8.838;2023-02-24T07:06:51;47.70;;;14.80;;
32292;SDS011;43233;48.608;8.838;2023-02-24T07:09:27;33.63;;;13.00;;
32292;SDS011;43233;48.608;8.838;2023-02-24T07:11:54;34.83;;;14.13;;
32292;SDS011;43233;48.608;8.838;2023-02-24T07:14:24;41.13;;;13.90;;
32292;SDS011;43233;48.608;8.838;2023-02-24T07:16:51;21.27;;;12.20;;
32292;SDS011;43233;48.608;8.838;2023-02-24T07:19:23;25.60;;;12.83;;
32292;SDS011;43233;48.608;8.838;2023-02-24T07:21:53;27.73;;;14.00;;
32292;SDS011;43233;48.608;8.838;2023-02-24T07:24:24;55.47;;;18.17;;
32292;SDS011;43233;48.608;8.838;2023-02-24T07:26:58;192.97;;;21.00;;
32292;SDS011;43233;48.608;8.838;2023-02-24T07:29:26;41.53;;;15.80;;
32292;SDS011;43233;48.608;8.838;2023-02-24T07:31:53;36.23;;;15.77;;
32292;SDS011;43233;48.608;8.838;2023-02-24T07:34:20;39.87;;;15.83;;
32292;SDS011;43233;48.608;8.838;2023-02-24T07:36:49;30.80;;;15.63;;
32292;SDS011;43233;48.608;8.838;2023-02-24T07:39:18;48.00;;;18.53;;
32292;SDS011;43233;48.608;8.838;2023-02-24T07:41:46;113.60;;;19.77;;
32292;SDS011;43233;48.608;8.838;2023-02-24T07:44:14;47.13;;;16.20;;
32292;SDS011;43233;48.608;8.838;2023-02-24T07:46:44;38.53;;;16.07;;
32292;SDS011;43233;48.608;8.838;2023-02-24T07:49:11;132.97;;;18.83;;
32292;SDS011;43233;48.608;8.838;2023-02-24T07:51:39;36.97;;;16.13;;
32292;SDS011;43233;48.608;8.838;2023-02-24T07:54:06;40.97;;;16.53;;
32292;SDS011;43233;48.608;8.838;2023-02-24T07:56:33;38.23;;;17.70;;
32292;SDS011;43233;48.608;8.838;2023-02-24T07:59:00;50.57;;;17.03;;
32292;SDS011;43233;48.608;8.838;2023-02-24T08:01:28;41.17;;;17.00;;
32292;SDS011;43233;48.608;8.838;2023-02-24T08:04:03;94.03;;;18.07;;
32292;SDS011;43233;48.608;8.838;2023-02-24T08:06:41;155.77;;;21.37;;
32292;SDS011;43233;48.608;8.838;2023-02-24T08:09:18;41.63;;;18.90;;
32292;SDS011;43233;48.608;8.838;2023-02-24T08:12:07;214.03;;;22.20;;
32292;SDS011;43233;48.608;8.838;2023-02-24T08:14:33;40.33;;;18.93;;
32292;SDS011;43233;48.608;8.838;2023-02-24T08:16:59;34.87;;;16.93;;
32292;SDS011;43233;48.608;8.838;2023-02-24T08:19:30;40.90;;;17.73;;
32292;SDS011;43233;48.608;8.838;2023-02-24T08:21:57;46.53;;;18.50;;
32292;SDS011;43233;48.608;8.838;2023-02-24T08:24:43;37.63;;;17.50;;
32292;SDS011;43233;48.608;8.838;2023-02-24T08:27:15;37.40;;;16.17;;
32292;SDS011;43233;48.608;8.838;2023-02-24T08:29:45;32.90;;;16.53;;
32292;SDS011;43233;48.608;8.838;2023-02-24T08:32:41;24.87;;;13.13;;
32292;SDS011;43233;48.608;8.838;2023-02-24T08:35:15;26.77;;;11.70;;
32292;SDS011;43233;48.608;8.838;2023-02-24T08:37:52;22.67;;;11.00;;
32292;SDS011;43233;48.608;8.838;2023-02-24T08:40:52;25.53;;;12.63;;
32292;SDS011;43233;48.608;8.838;2023-02-24T08:43:18;25.93;;;11.87;;
32292;SDS011;43233;48.608;8.838;2023-02-24T08:45:47;27.27;;;11.77;;
32292;SDS011;43233;48.608;8.838;2023-02-24T08:48:15;22.67;;;11.70;;
32292;SDS011;43233;48.608;8.838;2023-02-24T08:50:56;21.83;;;11.77;;
32292;SDS011;43233;48.608;8.838;2023-02-24T08:53:24;24.60;;;11.17;;
32292;SDS011;43233;48.608;8.838;2023-02-24T08:55:55;18.93;;;11.27;;
32292;SDS011;43233;48.608;8.838;2023-02-24T08:58:33;28.90;;;12.70;;
32292;SDS011;43233;48.608;8.838;2023-02-24T09:01:00;22.93;;;11.43;;
32292;SDS011;43233;48.608;8.838;2023-02-24T09:03:28;25.10;;;12.60;;
32292;SDS011;43233;48.608;8.838;2023-02-24T09:08:24;18.70;;;10.23;;
32292;SDS011;43233;48.608;8.838;2023-02-24T09:10:57;21.83;;;9.90;;
32292;SDS011;43233;48.608;8.838;2023-02-24T09:13:31;20.57;;;9.20;;
32292;SDS011;43233;48.608;8.838;2023-02-24T09:16:18;18.17;;;8.90;;
32292;SDS011;43233;48.608;8.838;2023-02-24T09:18:47;19.13;;;9.37;;
32292;SDS011;43233;48.608;8.838;2023-02-24T09:21:33;17.90;;;9.53;;
32292;SDS011;43233;48.608;8.838;2023-02-24T09:24:11;17.47;;;8.80;;
32292;SDS011;43233;48.608;8.838;2023-02-24T09:26:37;23.40;;;9.03;;
32292;SDS011;43233;48.608;8.838;2023-02-24T09:29:12;17.87;;;9.17;;
32292;SDS011;43233;48.608;8.838;2023-02-24T09:31:56;14.23;;;8.37;;
32292;SDS011;43233;48.608;8.838;2023-02-24T09:34:38;16.80;;;8.23;;
32292;SDS011;43233;48.608;8.838;2023-02-24T09:37:08;11.07;;;7.67;;
32292;SDS011;43233;48.608;8.838;2023-02-24T09:39:51;15.13;;;7.60;;
32292;SDS011;43233;48.608;8.838;2023-02-24T09:42:21;16.90;;;6.60;;
32292;SDS011;43233;48.608;8.838;2023-02-24T09:45:11;19.00;;;7.20;;
32292;SDS011;43233;48.608;8.838;2023-02-24T09:47:47;15.53;;;6.43;;
32292;SDS011;43233;48.608;8.838;2023-02-24T09:52:47;13.30;;;6.50;;
32292;SDS011;43233;48.608;8.838;2023-02-24T09:55:17;13.53;;;7.67;;
32292;SDS011;43233;48.608;8.838;2023-02-24T09:57:57;10.07;;;6.73;;
32292;SDS011;43233;48.608;8.838;2023-02-24T10:01:03;14.10;;;6.97;;
32292;SDS011;43233;48.608;8.838;2023-02-24T10:06:43;8.80;;;5.80;;
32292;SDS011;43233;48.608;8.838;2023-02-24T10:09:20;14.47;;;6.60;;
32292;SDS011;43233;48.608;8.838;2023-02-24T10:11:52;20.80;;;6.53;;
32292;SDS011;43233;48.608;8.838;2023-02-24T10:17:39;21.40;;;7.77;;
32292;SDS011;43233;48.608;8.838;2023-02-24T10:20:14;19.70;;;6.77;;
32292;SDS011;43233;48.608;8.838;2023-02-24T10:22:59;22.77;;;7.13;;
32292;SDS011;43233;48.608;8.838;2023-02-24T10:25:33;17.67;;;7.13;;
32292;SDS011;43233;48.608;8.838;2023-02-24T10:31:06;14.30;;;7.60;;
32292;SDS011;43233;48.608;8.838;2023-02-24T10:33:48;13.10;;;6.90;;
32292;SDS011;43233;48.608;8.838;2023-02-24T10:36:30;25.90;;;8.73;;
32292;SDS011;43233;48.608;8.838;2023-02-24T10:39:11;15.67;;;6.60;;
32292;SDS011;43233;48.608;8.838;2023-02-24T10:41:47;14.30;;;5.57;;
32292;SDS011;43233;48.608;8.838;2023-02-24T10:44:39;18.30;;;7.97;;
32292;SDS011;43233;48.608;8.838;2023-02-24T10:47:16;24.30;;;7.47;;
32292;SDS011;43233;48.608;8.838;2023-02-24T10:49:56;15.90;;;6.63;;
32292;SDS011;43233;48.608;8.838;2023-02-24T10:52:25;18.60;;;7.83;;
32292;SDS011;43233;48.608;8.838;2023-02-24T10:55:05;28.83;;;12.10;;
32292;SDS011;43233;48.608;8.838;2023-02-24T10:57:52;34.83;;;12.40;;
32292;SDS011;43233;48.608;8.838;2023-02-24T11:00:40;27.37;;;14.13;;
32292;SDS011;43233;48.608;8.838;2023-02-24T11:03:37;22.43;;;11.27;;
32292;SDS011;43233;48.608;8.838;2023-02-24T11:06:23;24.73;;;8.10;;
32292;SDS011;43233;48.608;8.838;2023-02-24T11:09:05;21.23;;;8.30;;
32292;SDS011;43233;48.608;8.838;2023-02-24T11:12:03;15.73;;;8.27;;
32292;SDS011;43233;48.608;8.838;2023-02-24T11:15:00;14.27;;;8.10;;
32292;SDS011;43233;48.608;8.838;2023-02-24T11:17:47;15.63;;;8.60;;
32292;SDS011;43233;48.608;8.838;2023-02-24T11:22:49;15.27;;;8.57;;
32292;SDS011;43233;48.608;8.838;2023-02-24T11:25:34;15.57;;;8.03;;
32292;SDS011;43233;48.608;8.838;2023-02-24T11:28:03;19.10;;;8.30;;
32292;SDS011;43233;48.608;8.838;2023-02-24T11:30:44;19.53;;;9.10;;
32292;SDS011;43233;48.608;8.838;2023-02-24T11:42:12;19.43;;;10.47;;
32292;SDS011;43233;48.608;8.838;2023-02-24T11:47:33;18.23;;;9.00;;
32292;SDS011;43233;48.608;8.838;2023-02-24T11:50:18;16.47;;;9.27;;
32292;SDS011;43233;48.608;8.838;2023-02-24T11:52:53;14.30;;;8.23;;
32292;SDS011;43233;48.608;8.838;2023-02-24T11:55:36;14.43;;;8.30;;
32292;SDS011;43233;48.608;8.838;2023-02-24T11:58:16;24.93;;;9.40;;
32292;SDS011;43233;48.608;8.838;2023-02-24T12:00:58;17.30;;;8.50;;
32292;SDS011;43233;48.608;8.838;2023-02-24T12:03:38;14.70;;;8.03;;
32292;SDS011;43233;48.608;8.838;2023-02-24T12:06:18;19.57;;;9.30;;
32292;SDS011;43233;48.608;8.838;2023-02-24T12:08:50;24.40;;;10.60;;
32292;SDS011;43233;48.608;8.838;2023-02-24T12:11:25;19.30;;;10.10;;
32292;SDS011;43233;48.608;8.838;2023-02-24T12:17:34;16.60;;;8.43;;
32292;SDS011;43233;48.608;8.838;2023-02-24T12:20:13;27.63;;;9.57;;
32292;SDS011;43233;48.608;8.838;2023-02-24T12:22:51;14.80;;;8.27;;
32292;SDS011;43233;48.608;8.838;2023-02-24T12:25:26;16.17;;;8.33;;
32292;SDS011;43233;48.608;8.838;2023-02-24T12:28:13;13.80;;;8.83;;
32292;SDS011;43233;48.608;8.838;2023-02-24T12:30:51;17.17;;;7.83;;
32292;SDS011;43233;48.608;8.838;2023-02-24T12:44:37;18.60;;;7.13;;
32292;SDS011;43233;48.608;8.838;2023-02-24T12:47:26;15.67;;;7.50;;
32292;SDS011;43233;48.608;8.838;2023-02-24T12:50:45;15.20;;;8.10;;
32292;SDS011;43233;48.608;8.838;2023-02-24T12:56:32;19.30;;;7.60;;
32292;SDS011;43233;48.608;8.838;2023-02-24T12:58:37;16.10;;;7.00;;
32292;SDS011;43233;48.608;8.838;2023-02-24T13:01:17;9.53;;;6.20;;
32292;SDS011;43233;48.608;8.838;2023-02-24T13:06:52;21.40;;;7.03;;
32292;SDS011;43233;48.608;8.838;2023-02-24T13:12:32;10.60;;;6.00;;
32292;SDS011;43233;48.608;8.838;2023-02-24T13:15:18;20.10;;;8.33;;
32292;SDS011;43233;48.608;8.838;2023-02-24T13:17:46;22.40;;;7.83;;
32292;SDS011;43233;48.608;8.838;2023-02-24T13:20:26;18.07;;;5.40;;
32292;SDS011;43233;48.608;8.838;2023-02-24T13:22:52;13.57;;;5.83;;
32292;SDS011;43233;48.608;8.838;2023-02-24T13:25:22;14.53;;;6.07;;
32292;SDS011;43233;48.608;8.838;2023-02-24T13:28:02;15.07;;;6.07;;
32292;SDS011;43233;48.608;8.838;2023-02-24T13:30:42;12.97;;;5.50;;
32292;SDS011;43233;48.608;8.838;2023-02-24T13:35:43;10.23;;;5.03;;
32292;SDS011;43233;48.608;8.838;2023-02-24T13:40:47;20.90;;;5.63;;
32292;SDS011;43233;48.608;8.838;2023-02-24T13:43:25;18.57;;;5.23;;
32292;SDS011;43233;48.608;8.838;2023-02-24T13:45:57;28.53;;;5.50;;
32292;SDS011;43233;48.608;8.838;2023-02-24T13:51:12;22.20;;;7.07;;
32292;SDS011;43233;48.608;8.838;2023-02-24T13:56:55;17.53;;;6.27;;
32292;SDS011;43233;48.608;8.838;2023-02-24T13:59:34;12.27;;;6.10;;
32292;SDS011;43233;48.608;8.838;2023-02-24T14:02:24;18.07;;;7.80;;
32292;SDS011;43233;48.608;8.838;2023-02-24T14:04:54;19.30;;;6.97;;
32292;SDS011;43233;48.608;8.838;2023-02-24T14:07:26;20.57;;;6.80;;
32292;SDS011;43233;48.608;8.838;2023-02-24T14:09:58;24.93;;;12.20;;
32292;SDS011;43233;48.608;8.838;2023-02-24T14:12:27;20.33;;;7.10;;
32292;SDS011;43233;48.608;8.838;2023-02-24T14:14:56;26.13;;;8.50;;
32292;SDS011;43233;48.608;8.838;2023-02-24T14:17:24;24.67;;;6.87;;
32292;SDS011;43233;48.608;8.838;2023-02-24T14:20:10;22.10;;;6.47;;
32292;SDS011;43233;48.608;8.838;2023-02-24T14:22:47;14.43;;;6.53;;
32292;SDS011;43233;48.608;8.838;2023-02-24T14:25:18;17.30;;;7.40;;
32292;SDS011;43233;48.608;8.838;2023-02-24T14:27:46;21.50;;;7.20;;
32292;SDS011;43233;48.608;8.838;2023-02-24T14:30:25;22.93;;;7.93;;
32292;SDS011;43233;48.608;8.838;2023-02-24T14:32:51;13.37;;;6.70;;
32292;SDS011;43233;48.608;8.838;2023-02-24T14:35:23;20.23;;;7.70;;
32292;SDS011;43233;48.608;8.838;2023-02-24T14:37:56;18.50;;;6.33;;
32292;SDS011;43233;48.608;8.838;2023-02-24T14:40:22;33.40;;;16.67;;
32292;SDS011;43233;48.608;8.838;2023-02-24T14:42:49;27.57;;;8.97;;
32292;SDS011;43233;48.608;8.838;2023-02-24T14:45:17;8.97;;;6.10;;
32292;SDS011;43233;48.608;8.838;2023-02-24T14:47:44;20.30;;;6.77;;
32292;SDS011;43233;48.608;8.838;2023-02-24T14:50:15;16.53;;;7.40;;
32292;SDS011;43233;48.608;8.838;2023-02-24T14:55:40;18.57;;;6.33;;
32292;SDS011;43233;48.608;8.838;2023-02-24T15:00:49;23.53;;;7.80;;
32292;SDS011;43233;48.608;8.838;2023-02-24T15:03:45;18.20;;;7.47;;
32292;SDS011;43233;48.608;8.838;2023-02-24T15:06:18;23.70;;;9.00;;
32292;SDS011;43233;48.608;8.838;2023-02-24T15:08:50;18.13;;;7.17;;
32292;SDS011;43233;48.608;8.838;2023-02-24T15:11:22;24.73;;;7.43;;
32292;SDS011;43233;48.608;8.838;2023-02-24T15:16:25;31.40;;;8.23;;
32292;SDS011;43233;48.608;8.838;2023-02-24T15:18:57;14.00;;;8.03;;
32292;SDS011;43233;48.608;8.838;2023-02-24T15:24:02;16.47;;;5.37;;
32292;SDS011;43233;48.608;8.838;2023-02-24T15:26:40;14.93;;;7.60;;
32292;SDS011;43233;48.608;8.838;2023-02-24T15:29:13;16.33;;;6.80;;
32292;SDS011;43233;48.608;8.838;2023-02-24T15:31:48;18.57;;;7.80;;
32292;SDS011;43233;48.608;8.838;2023-02-24T15:34:21;13.37;;;7.60;;
32292;SDS011;43233;48.608;8.838;2023-02-24T15:36:55;24.47;;;7.77;;
32292;SDS011;43233;48.608;8.838;2023-02-24T15:39:26;20.73;;;6.60;;
32292;SDS011;43233;48.608;8.838;2023-02-24T15:42:05;15.50;;;7.37;;
32292;SDS011;43233;48.608;8.838;2023-02-24T15:44:32;29.13;;;7.20;;
32292;SDS011;43233;48.608;8.838;2023-02-24T15:47:15;21.23;;;9.10;;
32292;SDS011;43233;48.608;8.838;2023-02-24T15:49:48;20.17;;;10.47;;
32292;SDS011;43233;48.608;8.838;2023-02-24T15:52:14;15.67;;;7.57;;
32292;SDS011;43233;48.608;8.838;2023-02-24T15:54:46;16.70;;;7.33;;
32292;SDS011;43233;48.608;8.838;2023-02-24T15:57:13;14.83;;;7.43;;
32292;SDS011;43233;48.608;8.838;2023-02-24T15:59:40;20.23;;;7.70;;
32292;SDS011;43233;48.608;8.838;2023-02-24T16:02:10;10.00;;;6.83;;
32292;SDS011;43233;48.608;8.838;2023-02-24T16:04:39;16.47;;;8.30;;
32292;SDS011;43233;48.608;8.838;2023-02-24T16:07:05;15.87;;;7.60;;
32292;SDS011;43233;48.608;8.838;2023-02-24T16:09:39;22.00;;;7.13;;
32292;SDS011;43233;48.608;8.838;2023-02-24T16:12:09;17.10;;;7.00;;
32292;SDS011;43233;48.608;8.838;2023-02-24T16:14:40;19.87;;;7.30;;
32292;SDS011;43233;48.608;8.838;2023-02-24T16:17:11;13.80;;;6.63;;
32292;SDS011;43233;48.608;8.838;2023-02-24T16:20:20;14.23;;;7.03;;
32292;SDS011;43233;48.608;8.838;2023-02-24T16:22:59;17.70;;;6.30;;
32292;SDS011;43233;48.608;8.838;2023-02-24T16:25:27;19.93;;;8.80;;
32292;SDS011;43233;48.608;8.838;2023-02-24T16:27:55;19.90;;;8.33;;
32292;SDS011;43233;48.608;8.838;2023-02-24T16:30:24;14.73;;;6.77;;
32292;SDS011;43233;48.608;8.838;2023-02-24T16:32:54;17.50;;;7.63;;
32292;SDS011;43233;48.608;8.838;2023-02-24T16:35:24;20.77;;;6.90;;
32292;SDS011;43233;48.608;8.838;2023-02-24T16:37:51;13.73;;;7.23;;
32292;SDS011;43233;48.608;8.838;2023-02-24T16:40:21;21.30;;;8.30;;
32292;SDS011;43233;48.608;8.838;2023-02-24T16:42:49;20.60;;;6.90;;
32292;SDS011;43233;48.608;8.838;2023-02-24T16:45:16;14.70;;;7.30;;
32292;SDS011;43233;48.608;8.838;2023-02-24T16:47:42;17.90;;;6.90;;
32292;SDS011;43233;48.608;8.838;2023-02-24T16:50:11;17.20;;;7.50;;
32292;SDS011;43233;48.608;8.838;2023-02-24T16:52:43;25.90;;;6.40;;
32292;SDS011;43233;48.608;8.838;2023-02-24T16:55:10;12.50;;;6.63;;